ETNT

Wittmundhafen Airport

Germany
METAR ETNT 241120Z AUTO 11017KT 9999 // ////// 02/M06 Q1031 ///
Observed Flight Rules
Feb-24 @ 11:20 UTC (an hour ago)
Wind Visibility
110° at 17 knots 10,000+ meters
Temperatures Readings
Current 2°C / 36°F
Dewpoint -6°C / 21°F
Humidity 56%
Altimeter 30.44" Hg
Pressure 1031 hPa
Elevation 12
METAR ETNT 241120Z AUTO 11017KT 9999 // ////// 02/M06 Q1031 ///
Observed Flight Rules
Feb-24 @ 11:20 UTC
(an hour ago)
Wind Visibility
110° at 17 knots 10,000+ meters
Temperature Dewpoint
2°C / 36°F -6°C / 21°F
Humidity Altimeter Pressure
56% 30.44" Hg 1031 hPa